createdAt,value
2018-07-28T00:00:15.552Z,19.92
2018-07-28T00:02:46.073Z,19.83
2018-07-28T00:05:16.835Z,19.85
2018-07-28T00:07:46.814Z,19.79
2018-07-28T00:10:17.505Z,19.77
2018-07-28T00:12:48.202Z,19.70
2018-07-28T00:15:18.871Z,19.70
2018-07-28T00:17:49.524Z,19.68
2018-07-28T00:20:20.510Z,19.66
2018-07-28T00:22:51.309Z,19.64
2018-07-28T00:25:21.793Z,19.57
2018-07-28T00:27:52.263Z,19.45
2018-07-28T00:30:23.176Z,19.39
2018-07-28T00:32:53.628Z,19.38
2018-07-28T00:35:24.324Z,19.38
2018-07-28T00:37:54.935Z,19.36
2018-07-28T00:40:25.544Z,19.36
2018-07-28T00:42:56.059Z,19.31
2018-07-28T00:45:26.543Z,19.30
2018-07-28T00:47:56.923Z,19.26
2018-07-28T00:50:27.533Z,19.25
2018-07-28T00:52:58.026Z,19.18
2018-07-28T00:55:28.539Z,19.15
2018-07-28T00:57:59.024Z,19.10
2018-07-28T01:00:29.671Z,19.08
2018-07-28T01:03:00.118Z,19.10
2018-07-28T01:05:30.243Z,19.06
2018-07-28T01:08:00.844Z,19.06
2018-07-28T01:10:31.520Z,19.06
2018-07-28T01:13:02.159Z,19.05
2018-07-28T01:15:32.700Z,19.02
2018-07-28T01:18:03.412Z,18.97
2018-07-28T01:20:33.933Z,18.94
2018-07-28T01:23:04.323Z,18.87
2018-07-28T01:25:34.908Z,18.84
2018-07-28T01:28:05.494Z,18.79
2018-07-28T01:30:36.056Z,18.79
2018-07-28T01:33:06.565Z,18.78
2018-07-28T01:35:37.159Z,18.73
2018-07-28T01:38:07.608Z,18.69
2018-07-28T01:40:38.150Z,18.62
2018-07-28T01:43:08.644Z,18.62
2018-07-28T01:45:39.236Z,18.62
2018-07-28T01:48:09.759Z,18.66
2018-07-28T01:50:40.256Z,18.62
2018-07-28T01:53:10.982Z,18.55
2018-07-28T01:55:41.599Z,18.52
2018-07-28T01:58:12.188Z,18.51
2018-07-28T02:00:42.695Z,18.51
2018-07-28T02:03:13.211Z,18.50
2018-07-28T02:05:43.657Z,18.44
2018-07-28T02:08:14.119Z,18.39
2018-07-28T02:10:44.832Z,18.37
2018-07-28T02:13:15.295Z,18.32
2018-07-28T02:15:45.882Z,18.30
2018-07-28T02:18:16.758Z,18.28
2018-07-28T02:20:46.935Z,18.28
2018-07-28T02:23:17.714Z,18.32
2018-07-28T02:25:48.284Z,18.32
2018-07-28T02:28:18.720Z,18.30
2018-07-28T02:30:49.493Z,18.24
2018-07-28T02:33:20.275Z,18.22
2018-07-28T02:35:50.896Z,18.24
2018-07-28T02:38:21.392Z,18.17
2018-07-28T02:40:52.084Z,18.15
2018-07-28T02:43:22.572Z,18.13
2018-07-28T02:45:53.195Z,18.10
2018-07-28T02:48:23.960Z,18.12
2018-07-28T02:50:54.915Z,18.12
2018-07-28T02:53:25.510Z,18.07
2018-07-28T02:55:56.228Z,18.03
2018-07-28T02:58:26.793Z,17.98
2018-07-28T03:00:57.300Z,17.94
2018-07-28T03:03:27.700Z,17.91
2018-07-28T03:05:58.292Z,17.94
2018-07-28T03:08:28.731Z,17.95
2018-07-28T03:10:59.396Z,17.94
2018-07-28T03:13:29.863Z,17.89
2018-07-28T03:16:00.293Z,17.87
2018-07-28T03:18:31.188Z,17.83
2018-07-28T03:21:01.772Z,17.85
2018-07-28T03:23:32.434Z,17.83
2018-07-28T03:26:03.120Z,17.86
2018-07-28T03:28:33.753Z,17.82
2018-07-28T03:31:04.433Z,17.84
2018-07-28T03:33:34.971Z,17.71
2018-07-28T03:36:05.795Z,17.58
2018-07-28T03:38:36.450Z,17.48
2018-07-28T03:41:07.407Z,17.45
2018-07-28T03:43:38.056Z,17.55
2018-07-28T03:46:08.892Z,17.59
2018-07-28T03:48:39.391Z,17.53
2018-07-28T03:51:10.056Z,17.41
2018-07-28T03:53:40.681Z,17.35
2018-07-28T03:56:11.002Z,17.42
2018-07-28T03:58:41.491Z,17.43
2018-07-28T04:01:12.029Z,17.50
2018-07-28T04:03:42.620Z,17.54
2018-07-28T04:06:13.232Z,17.54
2018-07-28T04:08:43.859Z,17.61
2018-07-28T04:11:14.424Z,17.59
2018-07-28T04:13:45.016Z,17.62
2018-07-28T04:16:15.648Z,17.68
2018-07-28T04:18:46.530Z,17.73
2018-07-28T04:21:17.296Z,17.76
2018-07-28T04:23:47.984Z,17.78
2018-07-28T04:26:18.429Z,17.80
2018-07-28T04:28:48.869Z,17.81
2018-07-28T04:31:19.482Z,17.83
2018-07-28T04:33:50.039Z,17.89
2018-07-28T04:36:20.523Z,17.91
2018-07-28T04:38:51.045Z,17.93
2018-07-28T04:41:21.548Z,18.02
2018-07-28T04:43:52.121Z,18.12
2018-07-28T04:46:22.547Z,18.21
2018-07-28T04:48:52.971Z,18.34
2018-07-28T04:51:23.712Z,18.50
2018-07-28T04:53:54.200Z,18.64
2018-07-28T04:56:25.143Z,18.75
2018-07-28T04:58:55.796Z,18.84
2018-07-28T05:01:26.484Z,18.91
2018-07-28T05:03:57.268Z,18.93
2018-07-28T05:06:27.745Z,18.95
2018-07-28T05:08:58.327Z,19.02
2018-07-28T05:11:28.869Z,19.22
2018-07-28T05:13:59.416Z,19.71
2018-07-28T05:16:29.832Z,20.21
2018-07-28T05:19:00.276Z,20.74
2018-07-28T05:21:30.904Z,21.12
2018-07-28T05:24:01.520Z,21.78
2018-07-28T05:26:32.062Z,22.41
2018-07-28T05:29:02.527Z,23.61
2018-07-28T05:31:32.963Z,24.56
2018-07-28T05:34:03.427Z,25.33
2018-07-28T05:36:34.064Z,24.73
2018-07-28T05:39:06.967Z,24.81
2018-07-28T05:41:37.706Z,25.08
2018-07-28T05:44:08.407Z,26.68
2018-07-28T05:46:39.079Z,27.61
2018-07-28T05:49:09.604Z,26.71
2018-07-28T05:51:40.143Z,26.15
2018-07-28T05:54:10.828Z,26.81
2018-07-28T05:56:41.279Z,27.01
2018-07-28T05:59:11.722Z,27.60
2018-07-28T06:01:42.440Z,28.13
2018-07-28T06:04:13.118Z,29.34
2018-07-28T06:06:43.653Z,29.48
2018-07-28T06:09:13.627Z,28.85
2018-07-28T06:11:44.307Z,28.98
2018-07-28T06:14:14.768Z,29.17
2018-07-28T06:16:45.282Z,30.73
2018-07-28T06:19:15.704Z,32.00
2018-07-28T06:21:46.187Z,33.11
2018-07-28T06:24:16.657Z,33.05
2018-07-28T06:26:47.196Z,33.41
2018-07-28T06:29:17.776Z,34.35
2018-07-28T06:31:48.592Z,35.43
2018-07-28T06:34:19.123Z,34.67
2018-07-28T06:36:49.737Z,33.39
2018-07-28T06:39:19.959Z,32.12
2018-07-28T06:41:50.444Z,30.61
2018-07-28T06:44:20.746Z,29.59
2018-07-28T06:46:51.290Z,28.42
2018-07-28T06:49:21.928Z,28.32
2018-07-28T06:51:52.711Z,28.13
2018-07-28T06:54:22.610Z,28.54
2018-07-28T06:56:53.366Z,28.19
2018-07-28T06:59:23.877Z,28.08
2018-07-28T07:01:54.676Z,28.00
2018-07-28T07:04:25.228Z,28.09
2018-07-28T07:06:55.808Z,28.05
2018-07-28T07:09:26.402Z,27.15
2018-07-28T07:11:56.818Z,26.92
2018-07-28T07:14:27.474Z,26.85
2018-07-28T07:16:57.939Z,26.13
2018-07-28T07:19:28.432Z,25.80
2018-07-28T07:21:59.229Z,25.30
2018-07-28T07:24:29.788Z,25.18
2018-07-28T07:27:00.401Z,25.03
2018-07-28T07:29:30.814Z,24.94
2018-07-28T07:32:01.217Z,24.51
2018-07-28T07:34:31.685Z,24.07
2018-07-28T07:37:02.309Z,24.03
2018-07-28T07:39:32.803Z,23.77
2018-07-28T07:42:03.264Z,24.10
2018-07-28T07:44:33.834Z,24.14
2018-07-28T07:47:04.308Z,24.25
2018-07-28T07:49:34.687Z,24.12
2018-07-28T07:52:05.781Z,23.97
2018-07-28T07:54:36.451Z,23.91
2018-07-28T07:57:08.006Z,23.81
2018-07-28T07:59:38.527Z,23.46
2018-07-28T08:02:09.183Z,23.55
2018-07-28T08:04:39.923Z,23.33
2018-07-28T08:07:10.371Z,23.29
2018-07-28T08:09:40.764Z,23.31
2018-07-28T08:12:11.231Z,23.36
2018-07-28T08:14:41.798Z,23.46
2018-07-28T08:17:11.759Z,23.43
2018-07-28T08:19:42.396Z,23.57
2018-07-28T08:22:12.928Z,23.45
2018-07-28T08:24:43.488Z,23.60
2018-07-28T08:27:13.957Z,23.38
2018-07-28T08:29:44.539Z,23.28
2018-07-28T08:32:15.075Z,22.99
2018-07-28T08:34:45.719Z,22.82
2018-07-28T08:37:16.275Z,22.52
2018-07-28T08:39:47.261Z,22.29
2018-07-28T08:42:17.853Z,22.10
2018-07-28T08:44:48.579Z,21.95
2018-07-28T08:47:19.217Z,21.93
2018-07-28T08:49:49.836Z,21.82
2018-07-28T08:52:20.379Z,21.81
2018-07-28T08:54:50.935Z,21.84
2018-07-28T08:57:21.499Z,21.94
2018-07-28T08:59:51.955Z,21.95
2018-07-28T09:02:22.080Z,21.94
2018-07-28T09:04:52.519Z,21.98
2018-07-28T09:07:23.291Z,21.87
2018-07-28T09:09:53.778Z,21.87
2018-07-28T09:12:24.353Z,21.87
2018-07-28T09:14:54.404Z,22.06
2018-07-28T09:17:25.049Z,22.24
2018-07-28T09:19:55.709Z,22.21
2018-07-28T09:22:26.222Z,22.54
2018-07-28T09:24:56.875Z,22.43
2018-07-28T09:27:27.026Z,22.69
2018-07-28T09:29:57.539Z,22.78
2018-07-28T09:32:27.991Z,23.06
2018-07-28T09:34:58.453Z,23.37
2018-07-28T09:37:29.077Z,23.47
2018-07-28T09:39:59.757Z,23.93
2018-07-28T09:42:30.360Z,24.70
2018-07-28T09:45:00.303Z,24.77
2018-07-28T09:47:30.753Z,25.01
2018-07-28T09:50:01.165Z,26.02
2018-07-28T09:52:32.059Z,25.95
2018-07-28T09:55:02.625Z,25.70
2018-07-28T09:57:33.274Z,25.83
2018-07-28T10:00:03.795Z,26.41
2018-07-28T10:02:34.285Z,27.03
2018-07-28T10:05:04.735Z,27.98
2018-07-28T10:07:35.196Z,28.38
2018-07-28T10:10:05.882Z,29.33
2018-07-28T10:12:36.627Z,30.84
2018-07-28T10:15:07.275Z,31.10
2018-07-28T10:17:37.687Z,31.55
2018-07-28T10:20:08.311Z,34.01
2018-07-28T10:22:38.784Z,33.94
2018-07-28T10:25:09.652Z,30.91
2018-07-28T10:27:40.288Z,30.34
2018-07-28T10:30:10.880Z,30.72
2018-07-28T10:32:41.391Z,33.24
2018-07-28T10:35:12.919Z,35.97
2018-07-28T10:37:43.772Z,34.40
2018-07-28T10:40:14.186Z,34.06
2018-07-28T10:42:44.600Z,34.53
2018-07-28T10:45:15.111Z,35.87
2018-07-28T10:47:45.659Z,33.46
2018-07-28T10:50:15.890Z,31.46
2018-07-28T10:52:46.517Z,31.46
2018-07-28T10:55:19.205Z,31.72
2018-07-28T10:57:53.309Z,30.44
2018-07-28T11:00:27.198Z,29.58
2018-07-28T11:03:11.095Z,29.97
2018-07-28T11:05:41.733Z,31.90
2018-07-28T11:08:12.195Z,32.72
2018-07-28T11:10:42.715Z,35.76
2018-07-28T11:13:13.316Z,34.18
2018-07-28T11:15:43.842Z,32.68
2018-07-28T11:18:14.715Z,29.36
2018-07-28T11:20:45.303Z,30.22
2018-07-28T11:23:31.026Z,31.75
2018-07-28T11:26:01.888Z,31.19
2018-07-28T11:28:32.231Z,30.39
2018-07-28T11:31:02.715Z,29.77
2018-07-28T11:33:49.498Z,29.07
2018-07-28T11:36:36.319Z,28.42
2018-07-28T11:39:23.225Z,28.11
2018-07-28T11:42:10.049Z,27.84
2018-07-28T11:45:00.571Z,28.04
2018-07-28T11:47:31.004Z,27.87
2018-07-28T11:50:01.340Z,27.73
2018-07-28T11:52:31.751Z,27.96
2018-07-28T11:55:02.256Z,28.14
2018-07-28T11:57:32.717Z,27.79
2018-07-28T12:00:03.301Z,27.99
2018-07-28T12:02:33.744Z,27.89
2018-07-28T12:05:04.363Z,27.48
2018-07-28T12:07:34.944Z,27.17
2018-07-28T12:10:07.351Z,27.34
2018-07-28T12:12:37.996Z,27.43
2018-07-28T12:15:08.990Z,27.22
2018-07-28T12:17:39.401Z,27.54
2018-07-28T12:20:10.080Z,27.34
2018-07-28T12:22:40.466Z,27.22
2018-07-28T12:25:11.116Z,26.82
2018-07-28T12:27:41.800Z,27.22
2018-07-28T12:30:12.546Z,27.13
2018-07-28T12:32:43.060Z,26.76
2018-07-28T12:35:13.614Z,26.42
2018-07-28T12:37:44.215Z,26.62
2018-07-28T12:40:14.779Z,26.52
2018-07-28T12:42:45.281Z,26.48
2018-07-28T12:45:15.662Z,26.49
2018-07-28T12:47:46.660Z,26.36
2018-07-28T12:50:17.189Z,26.38
2018-07-28T12:52:47.928Z,26.47
2018-07-28T12:55:18.814Z,26.63
2018-07-28T12:57:49.375Z,27.05
2018-07-28T13:00:19.979Z,27.28
2018-07-28T13:02:50.520Z,27.40
2018-07-28T13:05:20.949Z,27.06
2018-07-28T13:07:51.419Z,26.97
2018-07-28T13:10:21.909Z,27.76
2018-07-28T13:12:52.424Z,27.48
2018-07-28T13:15:22.855Z,27.77
2018-07-28T13:17:53.585Z,27.74
2018-07-28T13:20:23.980Z,27.82
2018-07-28T13:22:54.360Z,27.75
2018-07-28T13:25:25.040Z,27.38
2018-07-28T13:27:55.472Z,27.81
2018-07-28T13:30:25.997Z,28.18
2018-07-28T13:32:56.596Z,28.22
2018-07-28T13:35:27.249Z,27.75
2018-07-28T13:37:57.862Z,28.06
2018-07-28T13:40:28.371Z,28.29
2018-07-28T13:42:58.819Z,27.88
2018-07-28T13:45:29.420Z,27.90
2018-07-28T13:47:59.847Z,27.92
2018-07-28T13:50:30.373Z,28.02
2018-07-28T13:53:01.045Z,27.68
2018-07-28T13:55:31.455Z,27.48
2018-07-28T13:58:02.009Z,27.47
2018-07-28T14:00:32.482Z,27.19
2018-07-28T14:03:02.905Z,27.04
2018-07-28T14:05:33.329Z,27.01
2018-07-28T14:08:03.991Z,27.41
2018-07-28T14:10:34.419Z,27.03
2018-07-28T14:13:05.126Z,26.86
2018-07-28T14:15:35.719Z,26.50
2018-07-28T14:18:06.603Z,26.27
2018-07-28T14:20:37.239Z,26.26
2018-07-28T14:23:07.797Z,26.15
2018-07-28T14:25:38.330Z,26.00
2018-07-28T14:28:08.747Z,26.12
2018-07-28T14:30:39.259Z,25.99
2018-07-28T14:33:09.708Z,25.97
2018-07-28T14:35:40.307Z,26.27
2018-07-28T14:38:11.019Z,26.23
2018-07-28T14:40:41.675Z,26.12
2018-07-28T14:43:12.186Z,26.31
2018-07-28T14:45:42.574Z,26.10
2018-07-28T14:48:13.046Z,26.11
2018-07-28T14:50:43.686Z,25.64
2018-07-28T14:53:14.373Z,25.83
2018-07-28T14:55:44.924Z,25.92
2018-07-28T14:58:15.283Z,25.96
2018-07-28T15:00:45.962Z,26.20
2018-07-28T15:03:16.675Z,26.05
2018-07-28T15:05:47.156Z,26.20
2018-07-28T15:08:17.919Z,26.44
2018-07-28T15:10:48.454Z,26.39
2018-07-28T15:13:19.308Z,26.54
2018-07-28T15:15:50.104Z,26.35
2018-07-28T15:18:20.500Z,26.41
2018-07-28T15:20:51.152Z,26.58
2018-07-28T15:23:21.596Z,26.56
2018-07-28T15:25:52.137Z,27.11
2018-07-28T15:28:22.553Z,26.64
2018-07-28T15:30:54.576Z,26.76
2018-07-28T15:33:24.957Z,26.19
2018-07-28T15:35:55.879Z,26.29
2018-07-28T15:38:26.556Z,25.97
2018-07-28T15:40:57.178Z,25.61
2018-07-28T15:43:27.820Z,25.68
2018-07-28T15:45:58.405Z,25.53
2018-07-28T15:48:28.820Z,25.64
2018-07-28T15:50:59.377Z,25.40
2018-07-28T15:53:29.871Z,25.34
2018-07-28T15:56:00.688Z,25.01
2018-07-28T15:58:31.100Z,25.08
2018-07-28T16:01:01.539Z,25.09
2018-07-28T16:03:31.937Z,25.09
2018-07-28T16:06:02.781Z,24.98
2018-07-28T16:08:33.364Z,24.82
2018-07-28T16:11:04.125Z,24.95
2018-07-28T16:13:34.705Z,24.94
2018-07-28T16:16:05.115Z,24.78
2018-07-28T16:18:35.600Z,24.69
2018-07-28T16:21:06.013Z,24.51
2018-07-28T16:23:36.549Z,24.45
2018-07-28T16:26:07.785Z,24.25
2018-07-28T16:28:38.243Z,24.24
2018-07-28T16:31:08.991Z,24.12
2018-07-28T16:33:39.427Z,24.01
2018-07-28T16:36:09.963Z,23.94
2018-07-28T16:38:40.600Z,23.91
2018-07-28T16:41:11.036Z,23.96
2018-07-28T16:43:41.491Z,23.82
2018-07-28T16:46:11.997Z,23.83
2018-07-28T16:48:42.470Z,23.72
2018-07-28T16:51:12.941Z,23.55
2018-07-28T16:53:43.476Z,23.46
2018-07-28T16:56:14.075Z,23.44
2018-07-28T16:58:44.595Z,23.41
2018-07-28T17:01:15.115Z,23.50
2018-07-28T17:03:45.644Z,23.56
2018-07-28T17:06:16.233Z,23.67
2018-07-28T17:08:46.687Z,23.78
2018-07-28T17:11:17.296Z,23.69
2018-07-28T17:13:47.952Z,23.76
2018-07-28T17:16:18.402Z,23.86
2018-07-28T17:18:49.067Z,23.80
2018-07-28T17:21:19.739Z,23.77
2018-07-28T17:23:50.184Z,23.79
2018-07-28T17:26:20.909Z,23.83
2018-07-28T17:28:51.642Z,23.74
2018-07-28T17:31:22.180Z,23.77
2018-07-28T17:33:52.203Z,23.88
2018-07-28T17:36:22.801Z,24.04
2018-07-28T17:38:53.632Z,24.04
2018-07-28T17:41:24.169Z,23.97
2018-07-28T17:43:54.147Z,23.87
2018-07-28T17:46:24.805Z,24.04
2018-07-28T17:48:55.776Z,23.93
2018-07-28T17:51:26.188Z,23.92
2018-07-28T17:53:56.753Z,23.87
2018-07-28T17:56:27.288Z,23.77
2018-07-28T17:58:57.778Z,23.82
2018-07-28T18:01:28.391Z,23.91
2018-07-28T18:03:58.922Z,23.93
2018-07-28T18:06:29.419Z,24.00
2018-07-28T18:09:00.097Z,23.88
2018-07-28T18:11:30.488Z,23.84
2018-07-28T18:14:01.035Z,23.93
2018-07-28T18:16:31.985Z,23.93
2018-07-28T18:19:02.723Z,23.84
2018-07-28T18:21:33.388Z,23.77
2018-07-28T18:24:04.045Z,23.66
2018-07-28T18:26:34.787Z,23.62
2018-07-28T18:29:05.411Z,23.69
2018-07-28T18:31:35.927Z,23.70
2018-07-28T18:34:06.588Z,23.65
2018-07-28T18:36:37.137Z,23.60
2018-07-28T18:39:10.708Z,23.51
2018-07-28T18:41:41.375Z,23.54
2018-07-28T18:44:11.877Z,23.64
2018-07-28T18:46:42.631Z,23.51
2018-07-28T18:49:13.272Z,23.38
2018-07-28T18:51:43.920Z,23.43
2018-07-28T18:54:14.433Z,23.28
2018-07-28T18:56:45.087Z,23.18
2018-07-28T18:59:15.569Z,23.08
2018-07-28T19:01:46.344Z,23.01
2018-07-28T19:04:16.868Z,22.88
2018-07-28T19:06:47.379Z,22.82
2018-07-28T19:09:22.931Z,22.76
2018-07-28T19:11:53.398Z,22.67
2018-07-28T19:14:29.050Z,22.65
2018-07-28T19:16:59.577Z,22.63
2018-07-28T19:19:30.045Z,22.59
2018-07-28T19:22:00.318Z,22.56
2018-07-28T19:24:30.783Z,22.58
2018-07-28T19:27:01.555Z,22.60
2018-07-28T19:29:36.935Z,22.52
2018-07-28T19:32:07.306Z,22.43
2018-07-28T19:34:37.855Z,22.29
2018-07-28T19:37:13.447Z,22.13
2018-07-28T19:39:43.874Z,22.11
2018-07-28T19:42:19.397Z,22.04
2018-07-28T19:44:50.164Z,21.93
2018-07-28T19:47:20.822Z,21.85
2018-07-28T19:49:51.442Z,21.75
2018-07-28T19:52:22.318Z,21.66
2018-07-28T19:54:52.439Z,21.56
2018-07-28T19:57:23.103Z,21.46
2018-07-28T19:59:53.631Z,21.38
2018-07-28T20:02:24.128Z,21.29
2018-07-28T20:04:54.631Z,21.22
2018-07-28T20:07:25.245Z,21.10
2018-07-28T20:09:55.803Z,21.03
2018-07-28T20:12:26.248Z,20.92
2018-07-28T20:14:56.844Z,20.82
2018-07-28T20:17:27.640Z,20.71
2018-07-28T20:19:58.124Z,20.63
2018-07-28T20:22:28.477Z,20.56
2018-07-28T20:24:58.956Z,20.45
2018-07-28T20:27:29.577Z,20.42
2018-07-28T20:30:00.051Z,20.40
2018-07-28T20:32:30.616Z,20.37
2018-07-28T20:35:00.628Z,20.28
2018-07-28T20:37:31.203Z,20.25
2018-07-28T20:40:01.796Z,20.23
2018-07-28T20:42:32.367Z,20.47
2018-07-28T20:45:02.877Z,20.47
2018-07-28T20:47:33.512Z,20.40
2018-07-28T20:50:04.001Z,20.30
2018-07-28T20:52:34.503Z,20.21
2018-07-28T20:55:05.042Z,20.14
2018-07-28T20:57:35.676Z,20.07
2018-07-28T21:00:06.182Z,20.03
2018-07-28T21:02:36.663Z,19.98
2018-07-28T21:05:07.297Z,19.90
2018-07-28T21:07:37.892Z,19.81
2018-07-28T21:10:08.480Z,19.70
2018-07-28T21:12:38.983Z,19.58
2018-07-28T21:15:09.384Z,19.56
2018-07-28T21:17:40.150Z,19.55
2018-07-28T21:20:10.554Z,19.48
2018-07-28T21:22:41.137Z,19.41
2018-07-28T21:25:11.848Z,19.30
2018-07-28T21:27:42.409Z,19.32
2018-07-28T21:30:12.848Z,19.30
2018-07-28T21:32:43.355Z,19.29
2018-07-28T21:35:14.088Z,19.27
2018-07-28T21:37:45.653Z,19.28
2018-07-28T21:40:16.238Z,19.24
2018-07-28T21:42:46.880Z,19.23
2018-07-28T21:45:17.515Z,19.20
2018-07-28T21:47:47.981Z,19.16
2018-07-28T21:50:18.937Z,19.09
2018-07-28T21:52:49.527Z,19.03
2018-07-28T21:55:20.360Z,19.00
2018-07-28T21:57:50.918Z,18.97
2018-07-28T22:00:21.489Z,18.98
2018-07-28T22:02:51.960Z,18.92
2018-07-28T22:05:22.339Z,18.87
2018-07-28T22:07:52.823Z,18.83
2018-07-28T22:10:23.453Z,18.79
2018-07-28T22:12:53.969Z,18.77
2018-07-28T22:15:24.457Z,18.83
2018-07-28T22:17:55.012Z,18.81
2018-07-28T22:20:25.433Z,18.79
2018-07-28T22:22:55.873Z,18.78
2018-07-28T22:25:26.561Z,18.76
2018-07-28T22:27:57.243Z,18.72
2018-07-28T22:30:27.776Z,18.68
2018-07-28T22:32:58.455Z,18.63
2018-07-28T22:35:28.884Z,18.56
2018-07-28T22:37:59.412Z,18.51
2018-07-28T22:40:29.876Z,18.46
2018-07-28T22:43:00.425Z,18.42
2018-07-28T22:45:30.916Z,18.35
2018-07-28T22:48:01.512Z,18.29
2018-07-28T22:50:32.200Z,18.26
2018-07-28T22:53:02.922Z,18.14
2018-07-28T22:55:33.493Z,18.00
2018-07-28T22:58:04.066Z,17.85
2018-07-28T23:00:34.828Z,17.81
2018-07-28T23:03:05.272Z,17.81
2018-07-28T23:05:35.783Z,17.89
2018-07-28T23:08:06.419Z,17.94
2018-07-28T23:10:36.944Z,17.95
2018-07-28T23:13:07.703Z,17.95
2018-07-28T23:15:38.273Z,17.94
2018-07-28T23:18:08.735Z,17.94
2018-07-28T23:20:39.156Z,17.98
2018-07-28T23:23:09.756Z,17.98
2018-07-28T23:25:40.207Z,17.99
2018-07-28T23:28:10.513Z,18.00
2018-07-28T23:30:40.864Z,18.05
2018-07-28T23:33:11.378Z,18.08
2018-07-28T23:35:41.916Z,18.07
2018-07-28T23:38:12.436Z,18.07
2018-07-28T23:40:43.267Z,18.04
2018-07-28T23:43:13.420Z,17.98
2018-07-28T23:45:43.930Z,17.91
2018-07-28T23:48:15.512Z,17.93
2018-07-28T23:50:46.096Z,17.96
2018-07-28T23:53:16.916Z,17.97
2018-07-28T23:55:47.720Z,17.99
2018-07-28T23:58:18.368Z,18.02
